Terminal Aerodrome Forecast
Issued by NWS

Home | Current Version | Previous Version | Graphics & Text | Print | Product List | Glossary On
Versions: 1 2 3 4 5 6 7 8 9 10 11 12 13 14 15 16 17 18 19 20 21 22 23 24 25 26
000
FTUS43 KPAH 261700
TAFOWB
TAF
KOWB 261729Z 2618/2718 19010G20KT P6SM SCT045 BKN250
     FM270000 16006KT P6SM FEW050 BKN150
     FM270600 17005KT P6SM BKN050 PROB30 2711/2715 -SHRA BKN025
     FM271500 17006KT 4SM SHRA BR OVC015=

USA.gov is the U.S. government's official web portal to all federal, state and local government web resources and services.